logo
Search for airport 
image banner adimage banner adimage banner ad
image banner ad

EPVL - Wilcze Laski

Located in , Poland

ICAO - , IATA -

Data provided by Airmate  

General information

Coordinates: N53°35'40" E16°43'24"
Elevation is 512 feet MSL.
 
View others Airports in West Pomerania

Operational data

Special qualification required
Current time UTC:
Current local time:
Weather at : EPMI - Miroslawiec ( 48 km )
TAF: TAF EPMI 301700Z 3018/3106 13006KT CAVOK TEMPO 3018/3021 VRB15G25KT 3000 TSRA BKN020CB PROB30 3100/3106 3000 BR
View NOTAMs / SUP AIP / TFR affecting this airport [VIEW]
Communications frequencies: [VIEW]

Runways:

Airport contact information

Address: Poland

Satellite view of EPVL